sensor_id;sensor_type;location;lat;lon;timestamp;P1;durP1;ratioP1;P2;durP2;ratioP2
63259;SDS011;49390;51.380;0.098;2022-11-20T00:01:32;20.73;;;8.18;;
63259;SDS011;49390;51.380;0.098;2022-11-20T00:04:01;18.00;;;8.43;;
63259;SDS011;49390;51.380;0.098;2022-11-20T00:06:29;15.75;;;7.50;;
63259;SDS011;49390;51.380;0.098;2022-11-20T00:08:58;17.33;;;8.38;;
63259;SDS011;49390;51.380;0.098;2022-11-20T00:11:29;22.65;;;8.07;;
63259;SDS011;49390;51.380;0.098;2022-11-20T00:13:59;19.45;;;8.55;;
63259;SDS011;49390;51.380;0.098;2022-11-20T00:16:29;19.45;;;8.30;;
63259;SDS011;49390;51.380;0.098;2022-11-20T00:18:59;16.48;;;7.97;;
63259;SDS011;49390;51.380;0.098;2022-11-20T00:21:28;19.85;;;8.38;;
63259;SDS011;49390;51.380;0.098;2022-11-20T00:23:57;17.55;;;7.88;;
63259;SDS011;49390;51.380;0.098;2022-11-20T00:26:26;17.60;;;8.25;;
63259;SDS011;49390;51.380;0.098;2022-11-20T00:28:57;16.85;;;8.05;;
63259;SDS011;49390;51.380;0.098;2022-11-20T00:31:26;20.67;;;7.55;;
63259;SDS011;49390;51.380;0.098;2022-11-20T00:33:56;21.55;;;8.38;;
63259;SDS011;49390;51.380;0.098;2022-11-20T00:36:25;17.40;;;8.07;;
63259;SDS011;49390;51.380;0.098;2022-11-20T00:38:56;18.27;;;6.88;;
63259;SDS011;49390;51.380;0.098;2022-11-20T00:41:25;16.42;;;6.93;;
63259;SDS011;49390;51.380;0.098;2022-11-20T00:43:56;17.83;;;7.13;;
63259;SDS011;49390;51.380;0.098;2022-11-20T00:46:25;20.48;;;8.98;;
63259;SDS011;49390;51.380;0.098;2022-11-20T00:48:55;19.67;;;8.68;;
63259;SDS011;49390;51.380;0.098;2022-11-20T00:51:24;24.70;;;9.95;;
63259;SDS011;49390;51.380;0.098;2022-11-20T00:53:57;22.23;;;9.93;;
63259;SDS011;49390;51.380;0.098;2022-11-20T00:56:27;25.17;;;9.45;;
63259;SDS011;49390;51.380;0.098;2022-11-20T00:58:58;19.30;;;8.35;;
63259;SDS011;49390;51.380;0.098;2022-11-20T01:01:28;18.20;;;8.50;;
63259;SDS011;49390;51.380;0.098;2022-11-20T01:03:58;21.02;;;8.45;;
63259;SDS011;49390;51.380;0.098;2022-11-20T01:06:28;17.73;;;7.68;;
63259;SDS011;49390;51.380;0.098;2022-11-20T01:08:58;13.20;;;7.53;;
63259;SDS011;49390;51.380;0.098;2022-11-20T01:11:32;16.00;;;6.70;;
63259;SDS011;49390;51.380;0.098;2022-11-20T01:14:04;19.08;;;7.32;;
63259;SDS011;49390;51.380;0.098;2022-11-20T01:16:35;14.80;;;6.22;;
63259;SDS011;49390;51.380;0.098;2022-11-20T01:19:06;15.02;;;6.40;;
63259;SDS011;49390;51.380;0.098;2022-11-20T01:21:42;16.35;;;7.55;;
63259;SDS011;49390;51.380;0.098;2022-11-20T01:24:12;16.90;;;6.50;;
63259;SDS011;49390;51.380;0.098;2022-11-20T01:26:43;15.35;;;6.88;;
63259;SDS011;49390;51.380;0.098;2022-11-20T01:29:19;12.90;;;5.75;;
63259;SDS011;49390;51.380;0.098;2022-11-20T01:31:49;10.77;;;4.82;;
63259;SDS011;49390;51.380;0.098;2022-11-20T01:34:19;11.50;;;5.07;;
63259;SDS011;49390;51.380;0.098;2022-11-20T01:36:50;13.10;;;5.93;;
63259;SDS011;49390;51.380;0.098;2022-11-20T01:39:21;13.25;;;4.72;;
63259;SDS011;49390;51.380;0.098;2022-11-20T01:41:54;17.20;;;6.05;;
63259;SDS011;49390;51.380;0.098;2022-11-20T01:47:25;14.70;;;5.15;;
63259;SDS011;49390;51.380;0.098;2022-11-20T01:53:00;15.25;;;5.32;;
63259;SDS011;49390;51.380;0.098;2022-11-20T01:55:40;15.52;;;5.45;;
63259;SDS011;49390;51.380;0.098;2022-11-20T01:58:14;12.80;;;5.07;;
63259;SDS011;49390;51.380;0.098;2022-11-20T02:00:44;11.80;;;4.10;;
63259;SDS011;49390;51.380;0.098;2022-11-20T02:03:12;10.18;;;4.07;;
63259;SDS011;49390;51.380;0.098;2022-11-20T02:08:51;8.55;;;4.38;;
63259;SDS011;49390;51.380;0.098;2022-11-20T02:11:20;7.40;;;3.50;;
63259;SDS011;49390;51.380;0.098;2022-11-20T02:13:51;10.40;;;3.60;;
63259;SDS011;49390;51.380;0.098;2022-11-20T02:16:21;13.18;;;4.40;;
63259;SDS011;49390;51.380;0.098;2022-11-20T02:18:54;8.15;;;4.07;;
63259;SDS011;49390;51.380;0.098;2022-11-20T02:29:31;10.82;;;4.05;;
63259;SDS011;49390;51.380;0.098;2022-11-20T02:32:04;8.55;;;3.38;;
63259;SDS011;49390;51.380;0.098;2022-11-20T02:34:32;11.32;;;3.50;;
63259;SDS011;49390;51.380;0.098;2022-11-20T02:37:00;7.93;;;2.90;;
63259;SDS011;49390;51.380;0.098;2022-11-20T02:39:31;10.80;;;3.25;;
63259;SDS011;49390;51.380;0.098;2022-11-20T02:42:00;9.20;;;3.13;;
63259;SDS011;49390;51.380;0.098;2022-11-20T02:44:28;7.70;;;3.13;;
63259;SDS011;49390;51.380;0.098;2022-11-20T02:46:57;8.88;;;3.08;;
63259;SDS011;49390;51.380;0.098;2022-11-20T02:51:56;8.90;;;2.50;;
63259;SDS011;49390;51.380;0.098;2022-11-20T02:54:24;9.98;;;2.70;;
63259;SDS011;49390;51.380;0.098;2022-11-20T02:56:53;7.38;;;2.65;;
63259;SDS011;49390;51.380;0.098;2022-11-20T02:59:21;6.53;;;3.65;;
63259;SDS011;49390;51.380;0.098;2022-11-20T03:01:49;8.27;;;2.67;;
63259;SDS011;49390;51.380;0.098;2022-11-20T03:04:18;6.10;;;2.55;;
63259;SDS011;49390;51.380;0.098;2022-11-20T03:06:46;5.65;;;2.65;;
63259;SDS011;49390;51.380;0.098;2022-11-20T03:09:15;7.90;;;2.78;;
63259;SDS011;49390;51.380;0.098;2022-11-20T03:11:43;7.68;;;2.60;;
63259;SDS011;49390;51.380;0.098;2022-11-20T03:14:11;6.25;;;2.72;;
63259;SDS011;49390;51.380;0.098;2022-11-20T03:16:40;7.13;;;2.67;;
63259;SDS011;49390;51.380;0.098;2022-11-20T03:19:07;8.48;;;2.85;;
63259;SDS011;49390;51.380;0.098;2022-11-20T03:21:36;7.57;;;2.75;;
63259;SDS011;49390;51.380;0.098;2022-11-20T03:24:04;6.03;;;2.40;;
63259;SDS011;49390;51.380;0.098;2022-11-20T03:26:32;7.78;;;2.70;;
63259;SDS011;49390;51.380;0.098;2022-11-20T03:29:02;5.68;;;2.30;;
63259;SDS011;49390;51.380;0.098;2022-11-20T03:31:35;10.67;;;2.90;;
63259;SDS011;49390;51.380;0.098;2022-11-20T03:34:08;8.30;;;2.95;;
63259;SDS011;49390;51.380;0.098;2022-11-20T03:36:40;9.00;;;2.50;;
63259;SDS011;49390;51.380;0.098;2022-11-20T03:39:11;7.15;;;2.58;;
63259;SDS011;49390;51.380;0.098;2022-11-20T03:41:40;6.38;;;2.33;;
63259;SDS011;49390;51.380;0.098;2022-11-20T03:44:10;7.30;;;2.80;;
63259;SDS011;49390;51.380;0.098;2022-11-20T03:46:39;6.18;;;2.60;;
63259;SDS011;49390;51.380;0.098;2022-11-20T03:49:07;9.02;;;2.55;;
63259;SDS011;49390;51.380;0.098;2022-11-20T03:51:36;5.95;;;2.53;;
63259;SDS011;49390;51.380;0.098;2022-11-20T03:54:06;5.88;;;2.38;;
63259;SDS011;49390;51.380;0.098;2022-11-20T03:56:36;6.57;;;2.53;;
63259;SDS011;49390;51.380;0.098;2022-11-20T03:59:05;9.15;;;2.85;;
63259;SDS011;49390;51.380;0.098;2022-11-20T04:01:35;8.23;;;3.00;;
63259;SDS011;49390;51.380;0.098;2022-11-20T04:04:04;9.52;;;2.70;;
63259;SDS011;49390;51.380;0.098;2022-11-20T04:06:34;5.18;;;2.30;;
63259;SDS011;49390;51.380;0.098;2022-11-20T04:09:04;10.13;;;3.00;;
63259;SDS011;49390;51.380;0.098;2022-11-20T04:11:35;9.30;;;3.08;;
63259;SDS011;49390;51.380;0.098;2022-11-20T04:14:05;8.40;;;3.07;;
63259;SDS011;49390;51.380;0.098;2022-11-20T04:16:39;5.72;;;2.70;;
63259;SDS011;49390;51.380;0.098;2022-11-20T04:19:15;7.78;;;3.40;;
63259;SDS011;49390;51.380;0.098;2022-11-20T04:21:44;10.27;;;3.53;;
63259;SDS011;49390;51.380;0.098;2022-11-20T04:24:12;10.77;;;3.50;;
63259;SDS011;49390;51.380;0.098;2022-11-20T04:26:40;7.55;;;3.05;;
63259;SDS011;49390;51.380;0.098;2022-11-20T04:29:10;15.57;;;3.20;;
63259;SDS011;49390;51.380;0.098;2022-11-20T04:31:39;6.47;;;3.22;;
63259;SDS011;49390;51.380;0.098;2022-11-20T04:34:10;10.70;;;3.25;;
63259;SDS011;49390;51.380;0.098;2022-11-20T04:36:39;7.57;;;3.70;;
63259;SDS011;49390;51.380;0.098;2022-11-20T04:39:11;12.55;;;3.25;;
63259;SDS011;49390;51.380;0.098;2022-11-20T04:41:41;8.77;;;3.33;;
63259;SDS011;49390;51.380;0.098;2022-11-20T04:44:10;9.57;;;3.08;;
63259;SDS011;49390;51.380;0.098;2022-11-20T04:46:42;8.05;;;3.53;;
63259;SDS011;49390;51.380;0.098;2022-11-20T04:49:10;7.22;;;3.22;;
63259;SDS011;49390;51.380;0.098;2022-11-20T04:51:39;8.25;;;3.53;;
63259;SDS011;49390;51.380;0.098;2022-11-20T04:54:08;10.65;;;3.35;;
63259;SDS011;49390;51.380;0.098;2022-11-20T04:56:38;12.82;;;3.40;;
63259;SDS011;49390;51.380;0.098;2022-11-20T04:59:06;9.80;;;3.20;;
63259;SDS011;49390;51.380;0.098;2022-11-20T05:01:34;7.68;;;3.50;;
63259;SDS011;49390;51.380;0.098;2022-11-20T05:04:02;7.32;;;3.50;;
63259;SDS011;49390;51.380;0.098;2022-11-20T05:06:31;5.68;;;3.08;;
63259;SDS011;49390;51.380;0.098;2022-11-20T05:08:59;8.02;;;3.60;;
63259;SDS011;49390;51.380;0.098;2022-11-20T05:11:28;9.70;;;3.20;;
63259;SDS011;49390;51.380;0.098;2022-11-20T05:13:57;10.07;;;3.55;;
63259;SDS011;49390;51.380;0.098;2022-11-20T05:16:27;14.27;;;3.60;;
63259;SDS011;49390;51.380;0.098;2022-11-20T05:18:55;6.97;;;2.75;;
63259;SDS011;49390;51.380;0.098;2022-11-20T05:21:23;6.80;;;3.05;;
63259;SDS011;49390;51.380;0.098;2022-11-20T05:23:51;7.68;;;2.90;;
63259;SDS011;49390;51.380;0.098;2022-11-20T05:26:20;7.00;;;3.30;;
63259;SDS011;49390;51.380;0.098;2022-11-20T05:28:49;8.00;;;3.22;;
63259;SDS011;49390;51.380;0.098;2022-11-20T05:31:21;7.43;;;3.30;;
63259;SDS011;49390;51.380;0.098;2022-11-20T05:33:55;8.55;;;3.22;;
63259;SDS011;49390;51.380;0.098;2022-11-20T05:36:24;7.28;;;3.20;;
63259;SDS011;49390;51.380;0.098;2022-11-20T05:38:53;10.13;;;3.35;;
63259;SDS011;49390;51.380;0.098;2022-11-20T05:41:28;8.35;;;3.30;;
63259;SDS011;49390;51.380;0.098;2022-11-20T05:43:58;11.02;;;3.67;;
63259;SDS011;49390;51.380;0.098;2022-11-20T05:46:26;5.93;;;3.20;;
63259;SDS011;49390;51.380;0.098;2022-11-20T05:48:56;7.95;;;2.85;;
63259;SDS011;49390;51.380;0.098;2022-11-20T05:51:26;7.80;;;2.90;;
63259;SDS011;49390;51.380;0.098;2022-11-20T05:53:57;8.82;;;3.08;;
63259;SDS011;49390;51.380;0.098;2022-11-20T05:56:26;7.53;;;3.00;;
63259;SDS011;49390;51.380;0.098;2022-11-20T05:58:57;9.80;;;3.28;;
63259;SDS011;49390;51.380;0.098;2022-11-20T06:01:25;8.73;;;3.50;;
63259;SDS011;49390;51.380;0.098;2022-11-20T06:03:53;6.63;;;3.00;;
63259;SDS011;49390;51.380;0.098;2022-11-20T06:06:22;7.72;;;3.17;;
63259;SDS011;49390;51.380;0.098;2022-11-20T06:08:50;6.30;;;3.13;;
63259;SDS011;49390;51.380;0.098;2022-11-20T06:11:18;6.50;;;2.95;;
63259;SDS011;49390;51.380;0.098;2022-11-20T06:13:46;8.70;;;3.42;;
63259;SDS011;49390;51.380;0.098;2022-11-20T06:16:16;8.82;;;3.47;;
63259;SDS011;49390;51.380;0.098;2022-11-20T06:18:46;5.70;;;3.22;;
63259;SDS011;49390;51.380;0.098;2022-11-20T06:21:16;8.80;;;3.58;;
63259;SDS011;49390;51.380;0.098;2022-11-20T06:23:45;8.38;;;3.40;;
63259;SDS011;49390;51.380;0.098;2022-11-20T06:26:15;7.50;;;3.47;;
63259;SDS011;49390;51.380;0.098;2022-11-20T06:28:45;5.88;;;3.20;;
63259;SDS011;49390;51.380;0.098;2022-11-20T06:31:14;6.18;;;3.38;;
63259;SDS011;49390;51.380;0.098;2022-11-20T06:33:45;7.25;;;2.95;;
63259;SDS011;49390;51.380;0.098;2022-11-20T06:36:14;5.78;;;2.95;;
63259;SDS011;49390;51.380;0.098;2022-11-20T06:38:46;8.23;;;3.55;;
63259;SDS011;49390;51.380;0.098;2022-11-20T06:41:16;7.43;;;3.65;;
63259;SDS011;49390;51.380;0.098;2022-11-20T06:43:46;8.18;;;3.13;;
63259;SDS011;49390;51.380;0.098;2022-11-20T06:46:15;8.95;;;3.88;;
63259;SDS011;49390;51.380;0.098;2022-11-20T06:48:47;9.40;;;3.22;;
63259;SDS011;49390;51.380;0.098;2022-11-20T06:51:17;7.20;;;3.90;;
63259;SDS011;49390;51.380;0.098;2022-11-20T06:53:45;9.32;;;3.55;;
63259;SDS011;49390;51.380;0.098;2022-11-20T06:56:14;10.18;;;3.85;;
63259;SDS011;49390;51.380;0.098;2022-11-20T06:58:42;9.35;;;3.33;;
63259;SDS011;49390;51.380;0.098;2022-11-20T07:01:11;5.82;;;2.70;;
63259;SDS011;49390;51.380;0.098;2022-11-20T07:03:41;7.03;;;3.30;;
63259;SDS011;49390;51.380;0.098;2022-11-20T07:06:10;6.53;;;3.15;;
63259;SDS011;49390;51.380;0.098;2022-11-20T07:08:38;6.15;;;3.10;;
63259;SDS011;49390;51.380;0.098;2022-11-20T07:11:07;6.47;;;2.83;;
63259;SDS011;49390;51.380;0.098;2022-11-20T07:13:35;7.07;;;2.90;;
63259;SDS011;49390;51.380;0.098;2022-11-20T07:16:05;8.45;;;3.10;;
63259;SDS011;49390;51.380;0.098;2022-11-20T07:18:35;4.78;;;2.47;;
63259;SDS011;49390;51.380;0.098;2022-11-20T07:21:05;4.68;;;2.75;;
63259;SDS011;49390;51.380;0.098;2022-11-20T07:23:35;7.13;;;2.90;;
63259;SDS011;49390;51.380;0.098;2022-11-20T07:26:08;7.93;;;2.75;;
63259;SDS011;49390;51.380;0.098;2022-11-20T07:28:37;5.50;;;2.63;;
63259;SDS011;49390;51.380;0.098;2022-11-20T07:31:05;6.07;;;2.60;;
63259;SDS011;49390;51.380;0.098;2022-11-20T07:33:34;5.22;;;2.40;;
63259;SDS011;49390;51.380;0.098;2022-11-20T07:36:03;5.07;;;2.70;;
63259;SDS011;49390;51.380;0.098;2022-11-20T07:38:31;6.35;;;2.65;;
63259;SDS011;49390;51.380;0.098;2022-11-20T07:40:59;5.15;;;2.50;;
63259;SDS011;49390;51.380;0.098;2022-11-20T07:43:30;6.20;;;2.70;;
63259;SDS011;49390;51.380;0.098;2022-11-20T07:46:03;6.47;;;2.60;;
63259;SDS011;49390;51.380;0.098;2022-11-20T07:48:31;6.15;;;2.40;;
63259;SDS011;49390;51.380;0.098;2022-11-20T07:50:59;5.57;;;2.70;;
63259;SDS011;49390;51.380;0.098;2022-11-20T07:53:28;4.65;;;2.53;;
63259;SDS011;49390;51.380;0.098;2022-11-20T07:56:00;5.05;;;2.40;;
63259;SDS011;49390;51.380;0.098;2022-11-20T07:58:29;6.75;;;2.85;;
63259;SDS011;49390;51.380;0.098;2022-11-20T08:01:06;4.70;;;2.58;;
63259;SDS011;49390;51.380;0.098;2022-11-20T08:03:35;6.30;;;2.97;;
63259;SDS011;49390;51.380;0.098;2022-11-20T08:06:05;4.40;;;2.42;;
63259;SDS011;49390;51.380;0.098;2022-11-20T08:08:34;5.88;;;2.70;;
63259;SDS011;49390;51.380;0.098;2022-11-20T08:11:09;5.75;;;2.70;;
63259;SDS011;49390;51.380;0.098;2022-11-20T08:13:55;5.28;;;2.50;;
63259;SDS011;49390;51.380;0.098;2022-11-20T08:16:46;7.20;;;3.00;;
63259;SDS011;49390;51.380;0.098;2022-11-20T08:19:17;7.03;;;3.15;;
63259;SDS011;49390;51.380;0.098;2022-11-20T08:21:46;7.30;;;3.35;;
63259;SDS011;49390;51.380;0.098;2022-11-20T08:24:15;5.25;;;3.00;;
63259;SDS011;49390;51.380;0.098;2022-11-20T08:26:43;6.78;;;3.90;;
63259;SDS011;49390;51.380;0.098;2022-11-20T08:29:11;8.35;;;3.72;;
63259;SDS011;49390;51.380;0.098;2022-11-20T08:31:39;8.65;;;4.00;;
63259;SDS011;49390;51.380;0.098;2022-11-20T08:34:27;6.93;;;3.60;;
63259;SDS011;49390;51.380;0.098;2022-11-20T08:36:56;7.80;;;3.38;;
63259;SDS011;49390;51.380;0.098;2022-11-20T08:39:24;6.45;;;2.97;;
63259;SDS011;49390;51.380;0.098;2022-11-20T08:41:53;4.60;;;2.65;;
63259;SDS011;49390;51.380;0.098;2022-11-20T08:44:23;3.63;;;2.30;;
63259;SDS011;49390;51.380;0.098;2022-11-20T08:46:51;6.03;;;2.60;;
63259;SDS011;49390;51.380;0.098;2022-11-20T08:49:21;4.93;;;2.70;;
63259;SDS011;49390;51.380;0.098;2022-11-20T08:51:50;6.43;;;3.10;;
63259;SDS011;49390;51.380;0.098;2022-11-20T08:54:21;6.05;;;2.95;;
63259;SDS011;49390;51.380;0.098;2022-11-20T08:56:50;6.90;;;3.03;;
63259;SDS011;49390;51.380;0.098;2022-11-20T08:59:18;6.50;;;3.13;;
63259;SDS011;49390;51.380;0.098;2022-11-20T09:02:10;7.65;;;3.47;;
63259;SDS011;49390;51.380;0.098;2022-11-20T09:04:38;6.95;;;3.20;;
63259;SDS011;49390;51.380;0.098;2022-11-20T09:07:09;6.07;;;3.53;;
63259;SDS011;49390;51.380;0.098;2022-11-20T09:09:37;6.82;;;3.65;;
63259;SDS011;49390;51.380;0.098;2022-11-20T09:12:05;7.53;;;3.92;;
63259;SDS011;49390;51.380;0.098;2022-11-20T09:14:33;8.88;;;3.90;;
63259;SDS011;49390;51.380;0.098;2022-11-20T09:17:02;8.98;;;3.42;;
63259;SDS011;49390;51.380;0.098;2022-11-20T09:19:30;8.88;;;3.83;;
63259;SDS011;49390;51.380;0.098;2022-11-20T09:22:02;7.70;;;3.80;;
63259;SDS011;49390;51.380;0.098;2022-11-20T09:24:30;7.75;;;3.80;;
63259;SDS011;49390;51.380;0.098;2022-11-20T09:27:01;9.25;;;3.90;;
63259;SDS011;49390;51.380;0.098;2022-11-20T09:29:30;9.15;;;3.83;;
63259;SDS011;49390;51.380;0.098;2022-11-20T09:31:58;6.82;;;3.55;;
63259;SDS011;49390;51.380;0.098;2022-11-20T09:34:27;12.68;;;4.55;;
63259;SDS011;49390;51.380;0.098;2022-11-20T09:36:55;9.20;;;4.70;;
63259;SDS011;49390;51.380;0.098;2022-11-20T09:39:24;9.98;;;4.55;;
63259;SDS011;49390;51.380;0.098;2022-11-20T09:44:57;14.88;;;5.20;;
63259;SDS011;49390;51.380;0.098;2022-11-20T09:53:23;12.68;;;6.57;;
63259;SDS011;49390;51.380;0.098;2022-11-20T09:55:58;11.77;;;4.43;;
63259;SDS011;49390;51.380;0.098;2022-11-20T09:58:34;9.90;;;4.70;;
63259;SDS011;49390;51.380;0.098;2022-11-20T10:01:50;11.30;;;4.85;;
63259;SDS011;49390;51.380;0.098;2022-11-20T10:04:02;10.05;;;4.38;;
63259;SDS011;49390;51.380;0.098;2022-11-20T10:07:02;12.60;;;4.78;;
63259;SDS011;49390;51.380;0.098;2022-11-20T10:10:00;10.77;;;4.25;;
63259;SDS011;49390;51.380;0.098;2022-11-20T10:15:32;12.00;;;5.00;;
63259;SDS011;49390;51.380;0.098;2022-11-20T10:23:39;13.35;;;4.93;;
63259;SDS011;49390;51.380;0.098;2022-11-20T10:36:50;10.95;;;4.70;;
63259;SDS011;49390;51.380;0.098;2022-11-20T10:39:32;10.50;;;3.97;;
63259;SDS011;49390;51.380;0.098;2022-11-20T10:42:38;11.98;;;4.25;;
63259;SDS011;49390;51.380;0.098;2022-11-20T10:50:43;15.15;;;4.40;;
63259;SDS011;49390;51.380;0.098;2022-11-20T10:53:53;10.93;;;3.72;;
63259;SDS011;49390;51.380;0.098;2022-11-20T10:59:19;12.00;;;3.75;;
63259;SDS011;49390;51.380;0.098;2022-11-20T11:01:52;11.50;;;3.13;;
63259;SDS011;49390;51.380;0.098;2022-11-20T11:07:12;10.02;;;3.35;;
63259;SDS011;49390;51.380;0.098;2022-11-20T11:09:43;10.70;;;3.58;;
63259;SDS011;49390;51.380;0.098;2022-11-20T11:12:17;14.02;;;2.97;;
63259;SDS011;49390;51.380;0.098;2022-11-20T11:14:48;13.40;;;3.63;;
63259;SDS011;49390;51.380;0.098;2022-11-20T11:17:33;12.18;;;4.05;;
63259;SDS011;49390;51.380;0.098;2022-11-20T11:22:46;14.60;;;4.57;;
63259;SDS011;49390;51.380;0.098;2022-11-20T11:25:25;13.88;;;3.40;;
63259;SDS011;49390;51.380;0.098;2022-11-20T11:28:00;15.80;;;3.22;;
63259;SDS011;49390;51.380;0.098;2022-11-20T11:30:47;14.40;;;3.22;;
63259;SDS011;49390;51.380;0.098;2022-11-20T11:33:24;15.27;;;3.28;;
63259;SDS011;49390;51.380;0.098;2022-11-20T11:35:55;13.48;;;3.33;;
63259;SDS011;49390;51.380;0.098;2022-11-20T11:38:30;10.23;;;2.92;;
63259;SDS011;49390;51.380;0.098;2022-11-20T11:41:04;13.02;;;3.58;;
63259;SDS011;49390;51.380;0.098;2022-11-20T11:43:36;12.38;;;2.85;;
63259;SDS011;49390;51.380;0.098;2022-11-20T11:46:33;12.63;;;3.55;;
63259;SDS011;49390;51.380;0.098;2022-11-20T11:59:54;17.75;;;4.30;;
63259;SDS011;49390;51.380;0.098;2022-11-20T12:05:28;10.15;;;3.20;;
63259;SDS011;49390;51.380;0.098;2022-11-20T12:10:45;13.50;;;4.37;;
63259;SDS011;49390;51.380;0.098;2022-11-20T12:15:56;10.43;;;3.50;;
63259;SDS011;49390;51.380;0.098;2022-11-20T12:23:30;12.13;;;3.20;;
63259;SDS011;49390;51.380;0.098;2022-11-20T12:46:57;14.50;;;3.33;;
63259;SDS011;49390;51.380;0.098;2022-11-20T12:50:17;15.23;;;3.30;;
63259;SDS011;49390;51.380;0.098;2022-11-20T12:53:04;15.27;;;3.80;;
63259;SDS011;49390;51.380;0.098;2022-11-20T13:06:52;11.57;;;3.00;;
63259;SDS011;49390;51.380;0.098;2022-11-20T13:09:22;18.10;;;3.83;;
63259;SDS011;49390;51.380;0.098;2022-11-20T13:14:33;15.95;;;3.53;;
63259;SDS011;49390;51.380;0.098;2022-11-20T13:17:40;13.38;;;4.05;;
63259;SDS011;49390;51.380;0.098;2022-11-20T13:20:13;13.43;;;3.78;;
63259;SDS011;49390;51.380;0.098;2022-11-20T13:22:50;12.55;;;4.03;;
63259;SDS011;49390;51.380;0.098;2022-11-20T13:25:28;18.40;;;3.70;;
63259;SDS011;49390;51.380;0.098;2022-11-20T13:27:57;12.07;;;2.60;;
63259;SDS011;49390;51.380;0.098;2022-11-20T13:30:28;12.35;;;3.28;;
63259;SDS011;49390;51.380;0.098;2022-11-20T13:35:43;11.35;;;4.55;;
63259;SDS011;49390;51.380;0.098;2022-11-20T13:38:24;12.65;;;3.35;;
63259;SDS011;49390;51.380;0.098;2022-11-20T13:40:59;11.63;;;2.95;;
63259;SDS011;49390;51.380;0.098;2022-11-20T13:43:51;12.82;;;3.22;;
63259;SDS011;49390;51.380;0.098;2022-11-20T13:46:20;12.98;;;2.78;;
63259;SDS011;49390;51.380;0.098;2022-11-20T13:48:52;11.50;;;3.45;;
63259;SDS011;49390;51.380;0.098;2022-11-20T13:59:48;15.30;;;3.90;;
63259;SDS011;49390;51.380;0.098;2022-11-20T14:02:27;14.52;;;3.58;;
63259;SDS011;49390;51.380;0.098;2022-11-20T14:04:59;13.40;;;2.97;;
63259;SDS011;49390;51.380;0.098;2022-11-20T14:07:33;15.93;;;3.20;;
63259;SDS011;49390;51.380;0.098;2022-11-20T14:10:05;11.70;;;3.30;;
63259;SDS011;49390;51.380;0.098;2022-11-20T14:12:46;12.35;;;3.13;;
63259;SDS011;49390;51.380;0.098;2022-11-20T14:15:29;14.80;;;3.13;;
63259;SDS011;49390;51.380;0.098;2022-11-20T14:17:59;11.65;;;3.33;;
63259;SDS011;49390;51.380;0.098;2022-11-20T14:20:42;14.35;;;3.60;;
63259;SDS011;49390;51.380;0.098;2022-11-20T14:23:11;16.02;;;3.10;;
63259;SDS011;49390;51.380;0.098;2022-11-20T14:25:42;11.85;;;3.17;;
63259;SDS011;49390;51.380;0.098;2022-11-20T14:28:33;15.10;;;3.80;;
63259;SDS011;49390;51.380;0.098;2022-11-20T14:31:01;17.67;;;3.95;;
63259;SDS011;49390;51.380;0.098;2022-11-20T14:33:29;18.35;;;3.67;;
63259;SDS011;49390;51.380;0.098;2022-11-20T14:36:00;15.25;;;3.88;;
63259;SDS011;49390;51.380;0.098;2022-11-20T14:38:29;14.25;;;3.38;;
63259;SDS011;49390;51.380;0.098;2022-11-20T14:41:05;12.95;;;3.17;;
63259;SDS011;49390;51.380;0.098;2022-11-20T14:43:54;20.45;;;3.75;;
63259;SDS011;49390;51.380;0.098;2022-11-20T14:46:24;11.23;;;3.38;;
63259;SDS011;49390;51.380;0.098;2022-11-20T14:48:55;15.70;;;3.40;;
63259;SDS011;49390;51.380;0.098;2022-11-20T14:51:37;13.55;;;3.83;;
63259;SDS011;49390;51.380;0.098;2022-11-20T14:54:19;15.05;;;4.18;;
63259;SDS011;49390;51.380;0.098;2022-11-20T14:58:54;14.27;;;4.18;;
63259;SDS011;49390;51.380;0.098;2022-11-20T15:01:25;13.55;;;3.53;;
63259;SDS011;49390;51.380;0.098;2022-11-20T15:06:34;17.48;;;3.50;;
63259;SDS011;49390;51.380;0.098;2022-11-20T15:09:03;14.10;;;3.30;;
63259;SDS011;49390;51.380;0.098;2022-11-20T15:11:33;17.05;;;3.70;;
63259;SDS011;49390;51.380;0.098;2022-11-20T15:14:04;13.60;;;3.75;;
63259;SDS011;49390;51.380;0.098;2022-11-20T15:16:34;15.07;;;4.57;;
63259;SDS011;49390;51.380;0.098;2022-11-20T15:19:02;11.85;;;3.95;;
63259;SDS011;49390;51.380;0.098;2022-11-20T15:21:47;19.33;;;4.07;;
63259;SDS011;49390;51.380;0.098;2022-11-20T15:24:15;15.30;;;3.57;;
63259;SDS011;49390;51.380;0.098;2022-11-20T15:26:44;15.63;;;4.10;;
63259;SDS011;49390;51.380;0.098;2022-11-20T15:29:13;16.17;;;5.75;;
63259;SDS011;49390;51.380;0.098;2022-11-20T15:31:46;11.55;;;4.05;;
63259;SDS011;49390;51.380;0.098;2022-11-20T15:34:14;16.42;;;5.68;;
63259;SDS011;49390;51.380;0.098;2022-11-20T15:36:44;19.40;;;4.35;;
63259;SDS011;49390;51.380;0.098;2022-11-20T15:39:11;25.80;;;5.25;;
63259;SDS011;49390;51.380;0.098;2022-11-20T15:41:40;67.20;;;10.52;;
63259;SDS011;49390;51.380;0.098;2022-11-20T15:44:08;50.15;;;9.00;;
63259;SDS011;49390;51.380;0.098;2022-11-20T15:46:37;21.23;;;5.50;;
63259;SDS011;49390;51.380;0.098;2022-11-20T15:49:14;26.95;;;6.30;;
63259;SDS011;49390;51.380;0.098;2022-11-20T15:51:46;21.50;;;4.78;;
63259;SDS011;49390;51.380;0.098;2022-11-20T15:54:16;20.00;;;4.80;;
63259;SDS011;49390;51.380;0.098;2022-11-20T15:56:49;16.48;;;4.30;;
63259;SDS011;49390;51.380;0.098;2022-11-20T15:59:37;16.85;;;4.40;;
63259;SDS011;49390;51.380;0.098;2022-11-20T16:02:10;11.88;;;4.40;;
63259;SDS011;49390;51.380;0.098;2022-11-20T16:04:46;16.48;;;3.88;;
63259;SDS011;49390;51.380;0.098;2022-11-20T16:07:14;10.10;;;3.70;;
63259;SDS011;49390;51.380;0.098;2022-11-20T16:09:42;11.35;;;4.03;;
63259;SDS011;49390;51.380;0.098;2022-11-20T16:12:10;12.15;;;3.22;;
63259;SDS011;49390;51.380;0.098;2022-11-20T16:14:58;15.65;;;3.97;;
63259;SDS011;49390;51.380;0.098;2022-11-20T16:17:47;14.45;;;3.63;;
63259;SDS011;49390;51.380;0.098;2022-11-20T16:20:15;10.95;;;3.47;;
63259;SDS011;49390;51.380;0.098;2022-11-20T16:22:43;12.38;;;3.80;;
63259;SDS011;49390;51.380;0.098;2022-11-20T16:25:11;11.95;;;3.40;;
63259;SDS011;49390;51.380;0.098;2022-11-20T16:27:40;13.60;;;3.85;;
63259;SDS011;49390;51.380;0.098;2022-11-20T16:30:08;12.35;;;3.50;;
63259;SDS011;49390;51.380;0.098;2022-11-20T16:32:37;14.07;;;4.28;;
63259;SDS011;49390;51.380;0.098;2022-11-20T16:35:05;18.80;;;3.70;;
63259;SDS011;49390;51.380;0.098;2022-11-20T16:37:35;14.20;;;4.35;;
63259;SDS011;49390;51.380;0.098;2022-11-20T16:40:03;11.07;;;4.20;;
63259;SDS011;49390;51.380;0.098;2022-11-20T16:42:33;14.48;;;3.90;;
63259;SDS011;49390;51.380;0.098;2022-11-20T16:45:01;14.45;;;4.70;;
63259;SDS011;49390;51.380;0.098;2022-11-20T16:47:33;14.75;;;4.70;;
63259;SDS011;49390;51.380;0.098;2022-11-20T16:50:03;16.13;;;3.55;;
63259;SDS011;49390;51.380;0.098;2022-11-20T16:52:33;14.32;;;3.45;;
63259;SDS011;49390;51.380;0.098;2022-11-20T16:55:02;9.38;;;3.10;;
63259;SDS011;49390;51.380;0.098;2022-11-20T16:57:33;14.13;;;3.95;;
63259;SDS011;49390;51.380;0.098;2022-11-20T17:00:04;17.77;;;3.78;;
63259;SDS011;49390;51.380;0.098;2022-11-20T17:02:33;11.23;;;4.38;;
63259;SDS011;49390;51.380;0.098;2022-11-20T17:05:04;12.85;;;3.85;;
63259;SDS011;49390;51.380;0.098;2022-11-20T17:07:34;22.25;;;5.50;;
63259;SDS011;49390;51.380;0.098;2022-11-20T17:10:04;23.17;;;5.43;;
63259;SDS011;49390;51.380;0.098;2022-11-20T17:12:32;22.77;;;6.20;;
63259;SDS011;49390;51.380;0.098;2022-11-20T17:15:00;22.25;;;5.03;;
63259;SDS011;49390;51.380;0.098;2022-11-20T17:17:29;18.52;;;4.72;;
63259;SDS011;49390;51.380;0.098;2022-11-20T17:19:56;13.57;;;3.80;;
63259;SDS011;49390;51.380;0.098;2022-11-20T17:22:25;12.43;;;4.07;;
63259;SDS011;49390;51.380;0.098;2022-11-20T17:24:54;13.82;;;4.35;;